sensor_id;sensor_type;location;lat;lon;timestamp;pressure;altitude;pressure_sealevel;temperature;humidity
75699;BME280;64313;51.018;13.742;2024-02-21T00:00:47;100332.28;;;7.80;66.12
75699;BME280;64313;51.018;13.742;2024-02-21T00:03:12;100326.97;;;7.80;66.46
75699;BME280;64313;51.018;13.742;2024-02-21T00:05:38;100326.97;;;7.80;66.28
75699;BME280;64313;51.018;13.742;2024-02-21T00:08:03;100326.97;;;7.80;66.13
75699;BME280;64313;51.018;13.742;2024-02-21T00:10:29;100314.50;;;7.81;66.28
75699;BME280;64313;51.018;13.742;2024-02-21T00:12:57;100326.78;;;7.82;66.56
75699;BME280;64313;51.018;13.742;2024-02-21T00:15:22;100314.34;;;7.82;66.77
75699;BME280;64313;51.018;13.742;2024-02-21T00:17:47;100307.38;;;7.81;66.43
75699;BME280;64313;51.018;13.742;2024-02-21T00:20:13;100309.03;;;7.82;66.10
75699;BME280;64313;51.018;13.742;2024-02-21T00:22:39;100306.38;;;7.82;65.97
75699;BME280;64313;51.018;13.742;2024-02-21T00:25:04;100303.53;;;7.84;66.09
75699;BME280;64313;51.018;13.742;2024-02-21T00:27:30;100303.34;;;7.85;66.20
75699;BME280;64313;51.018;13.742;2024-02-21T00:29:56;100299.03;;;7.84;66.31
75699;BME280;64313;51.018;13.742;2024-02-21T00:32:21;100296.22;;;7.86;65.82
75699;BME280;64313;51.018;13.742;2024-02-21T00:34:46;100291.75;;;7.86;66.53
75699;BME280;64313;51.018;13.742;2024-02-21T00:37:12;100291.75;;;7.86;65.95
75699;BME280;64313;51.018;13.742;2024-02-21T00:39:37;100292.56;;;7.87;66.23
75699;BME280;64313;51.018;13.742;2024-02-21T00:42:03;100288.91;;;7.88;65.59
75699;BME280;64313;51.018;13.742;2024-02-21T00:44:28;100289.72;;;7.88;66.30
75699;BME280;64313;51.018;13.742;2024-02-21T00:46:53;100279.13;;;7.88;65.59
75699;BME280;64313;51.018;13.742;2024-02-21T00:49:19;100277.47;;;7.87;65.69
75699;BME280;64313;51.018;13.742;2024-02-21T00:51:44;100283.78;;;7.86;66.04
75699;BME280;64313;51.018;13.742;2024-02-21T00:54:09;100282.59;;;7.89;65.89
75699;BME280;64313;51.018;13.742;2024-02-21T00:56:34;100274.63;;;7.89;65.44
75699;BME280;64313;51.018;13.742;2024-02-21T00:59:00;100271.97;;;7.89;65.67
75699;BME280;64313;51.018;13.742;2024-02-21T01:01:25;100270.31;;;7.88;65.67
75699;BME280;64313;51.018;13.742;2024-02-21T01:03:51;100269.31;;;7.89;65.94
75699;BME280;64313;51.018;13.742;2024-02-21T01:06:21;100266.66;;;7.89;65.98
75699;BME280;64313;51.018;13.742;2024-02-21T01:08:47;100270.13;;;7.90;65.32
75699;BME280;64313;51.018;13.742;2024-02-21T01:11:13;100253.38;;;7.89;65.53
75699;BME280;64313;51.018;13.742;2024-02-21T01:13:39;100250.91;;;7.87;65.96
75699;BME280;64313;51.018;13.742;2024-02-21T01:16:04;100254.38;;;7.88;65.50
75699;BME280;64313;51.018;13.742;2024-02-21T01:18:32;100252.56;;;7.88;65.68
75699;BME280;64313;51.018;13.742;2024-02-21T01:20:57;100244.59;;;7.88;65.79
75699;BME280;64313;51.018;13.742;2024-02-21T01:23:22;100245.59;;;7.87;65.95
75699;BME280;64313;51.018;13.742;2024-02-21T01:25:47;100241.94;;;7.88;66.33
75699;BME280;64313;51.018;13.742;2024-02-21T01:28:13;100235.81;;;7.88;65.69
75699;BME280;64313;51.018;13.742;2024-02-21T01:30:38;100236.63;;;7.88;65.59
75699;BME280;64313;51.018;13.742;2024-02-21T01:33:03;100229.66;;;7.87;65.58
75699;BME280;64313;51.018;13.742;2024-02-21T01:35:29;100219.03;;;7.87;65.64
75699;BME280;64313;51.018;13.742;2024-02-21T01:37:54;100211.06;;;7.87;65.44
75699;BME280;64313;51.018;13.742;2024-02-21T01:40:19;100212.91;;;7.87;65.40
75699;BME280;64313;51.018;13.742;2024-02-21T01:42:45;100208.59;;;7.86;65.41
75699;BME280;64313;51.018;13.742;2024-02-21T01:45:10;100193.50;;;7.86;65.67
75699;BME280;64313;51.018;13.742;2024-02-21T01:47:36;100196.97;;;7.87;66.03
75699;BME280;64313;51.018;13.742;2024-02-21T01:50:02;100189.00;;;7.87;65.61
75699;BME280;64313;51.018;13.742;2024-02-21T01:52:29;100181.03;;;7.87;65.91
75699;BME280;64313;51.018;13.742;2024-02-21T01:54:56;100176.75;;;7.86;66.03
75699;BME280;64313;51.018;13.742;2024-02-21T01:57:22;100183.03;;;7.85;65.80
75699;BME280;64313;51.018;13.742;2024-02-21T01:59:48;100169.94;;;7.83;65.71
75699;BME280;64313;51.018;13.742;2024-02-21T02:02:13;100174.44;;;7.83;66.27
75699;BME280;64313;51.018;13.742;2024-02-21T02:04:39;100172.78;;;7.82;65.52
75699;BME280;64313;51.018;13.742;2024-02-21T02:07:06;100171.13;;;7.81;66.12
75699;BME280;64313;51.018;13.742;2024-02-21T02:09:32;100170.31;;;7.80;65.66
75699;BME280;64313;51.018;13.742;2024-02-21T02:11:58;100167.81;;;7.79;65.86
75699;BME280;64313;51.018;13.742;2024-02-21T02:14:24;100171.31;;;7.79;65.41
75699;BME280;64313;51.018;13.742;2024-02-21T02:16:50;100165.34;;;7.77;66.28
75699;BME280;64313;51.018;13.742;2024-02-21T02:19:15;100160.41;;;7.74;66.45
75699;BME280;64313;51.018;13.742;2024-02-21T02:21:44;100169.19;;;7.75;66.29
75699;BME280;64313;51.018;13.742;2024-02-21T02:24:10;100159.59;;;7.74;66.58
75699;BME280;64313;51.018;13.742;2024-02-21T02:26:35;100164.06;;;7.73;66.45
75699;BME280;64313;51.018;13.742;2024-02-21T02:29:03;100164.88;;;7.74;66.22
75699;BME280;64313;51.018;13.742;2024-02-21T02:31:29;100168.53;;;7.73;66.13
75699;BME280;64313;51.018;13.742;2024-02-21T02:33:54;100159.59;;;7.74;66.56
75699;BME280;64313;51.018;13.742;2024-02-21T02:36:19;100154.44;;;7.72;66.70
75699;BME280;64313;51.018;13.742;2024-02-21T02:38:45;100160.56;;;7.73;66.25
75699;BME280;64313;51.018;13.742;2024-02-21T02:41:10;100159.75;;;7.72;66.43
75699;BME280;64313;51.018;13.742;2024-02-21T02:43:35;100160.75;;;7.71;66.93
75699;BME280;64313;51.018;13.742;2024-02-21T02:46:02;100161.56;;;7.72;66.97
75699;BME280;64313;51.018;13.742;2024-02-21T02:48:27;100157.25;;;7.71;66.62
75699;BME280;64313;51.018;13.742;2024-02-21T02:50:52;100152.78;;;7.71;66.44
75699;BME280;64313;51.018;13.742;2024-02-21T02:53:18;100150.13;;;7.71;66.55
75699;BME280;64313;51.018;13.742;2024-02-21T02:55:43;100145.63;;;7.72;67.01
75699;BME280;64313;51.018;13.742;2024-02-21T02:58:08;100142.16;;;7.71;66.48
75699;BME280;64313;51.018;13.742;2024-02-21T03:00:33;100146.47;;;7.72;66.42
75699;BME280;64313;51.018;13.742;2024-02-21T03:03:01;100142.81;;;7.73;66.40
75699;BME280;64313;51.018;13.742;2024-02-21T03:05:28;100135.84;;;7.72;66.21
75699;BME280;64313;51.018;13.742;2024-02-21T03:07:54;100132.38;;;7.72;66.62
75699;BME280;64313;51.018;13.742;2024-02-21T03:10:20;100142.16;;;7.71;66.38
75699;BME280;64313;51.018;13.742;2024-02-21T03:12:45;100136.84;;;7.71;66.33
75699;BME280;64313;51.018;13.742;2024-02-21T03:15:11;100145.63;;;7.72;66.66
75699;BME280;64313;51.018;13.742;2024-02-21T03:17:37;100134.19;;;7.71;66.12
75699;BME280;64313;51.018;13.742;2024-02-21T03:20:03;100129.91;;;7.70;66.32
75699;BME280;64313;51.018;13.742;2024-02-21T03:22:34;100130.72;;;7.71;66.56
75699;BME280;64313;51.018;13.742;2024-02-21T03:24:59;100120.28;;;7.69;66.70
75699;BME280;64313;51.018;13.742;2024-02-21T03:27:25;100116.63;;;7.70;66.70
75699;BME280;64313;51.018;13.742;2024-02-21T03:29:50;100114.16;;;7.69;66.84
75699;BME280;64313;51.018;13.742;2024-02-21T03:32:15;100122.13;;;7.69;66.67
75699;BME280;64313;51.018;13.742;2024-02-21T03:34:41;100124.78;;;7.69;66.16
75699;BME280;64313;51.018;13.742;2024-02-21T03:37:06;100128.44;;;7.68;66.85
75699;BME280;64313;51.018;13.742;2024-02-21T03:39:32;100134.56;;;7.68;66.37
75699;BME280;64313;51.018;13.742;2024-02-21T03:41:59;100132.75;;;7.69;66.62
75699;BME280;64313;51.018;13.742;2024-02-21T03:44:29;100128.44;;;7.68;66.96
75699;BME280;64313;51.018;13.742;2024-02-21T03:46:54;100127.63;;;7.67;66.43
75699;BME280;64313;51.018;13.742;2024-02-21T03:49:20;100123.13;;;7.68;66.32
75699;BME280;64313;51.018;13.742;2024-02-21T03:51:45;100130.09;;;7.69;66.68
75699;BME280;64313;51.018;13.742;2024-02-21T03:54:10;100123.13;;;7.68;65.96
75699;BME280;64313;51.018;13.742;2024-02-21T03:56:39;100116.00;;;7.68;65.99
75699;BME280;64313;51.018;13.742;2024-02-21T03:59:07;100121.28;;;7.68;66.80
75699;BME280;64313;51.018;13.742;2024-02-21T04:01:34;100116.00;;;7.68;66.70
75699;BME280;64313;51.018;13.742;2024-02-21T04:03:59;100111.50;;;7.69;66.89
75699;BME280;64313;51.018;13.742;2024-02-21T04:06:24;100114.97;;;7.69;66.51
75699;BME280;64313;51.018;13.742;2024-02-21T04:08:49;100110.69;;;7.68;66.92
75699;BME280;64313;51.018;13.742;2024-02-21T04:11:15;100109.66;;;7.69;66.69
75699;BME280;64313;51.018;13.742;2024-02-21T04:13:40;100103.53;;;7.69;67.21
75699;BME280;64313;51.018;13.742;2024-02-21T04:16:05;100105.19;;;7.70;66.28
75699;BME280;64313;51.018;13.742;2024-02-21T04:18:31;100095.56;;;7.69;66.80
75699;BME280;64313;51.018;13.742;2024-02-21T04:20:56;100097.41;;;7.68;66.77
75699;BME280;64313;51.018;13.742;2024-02-21T04:23:21;100091.28;;;7.68;66.89
75699;BME280;64313;51.018;13.742;2024-02-21T04:25:47;100080.66;;;7.68;67.21
75699;BME280;64313;51.018;13.742;2024-02-21T04:28:12;100093.09;;;7.67;67.10
75699;BME280;64313;51.018;13.742;2024-02-21T04:30:37;100093.09;;;7.67;66.72
75699;BME280;64313;51.018;13.742;2024-02-21T04:33:03;100078.16;;;7.66;67.11
75699;BME280;64313;51.018;13.742;2024-02-21T04:35:28;100093.25;;;7.66;67.60
75699;BME280;64313;51.018;13.742;2024-02-21T04:37:53;100090.78;;;7.64;67.09
75699;BME280;64313;51.018;13.742;2024-02-21T04:40:19;100090.78;;;7.64;66.57
75699;BME280;64313;51.018;13.742;2024-02-21T04:42:44;100089.97;;;7.64;66.86
75699;BME280;64313;51.018;13.742;2024-02-21T04:45:10;100078.53;;;7.63;66.24
75699;BME280;64313;51.018;13.742;2024-02-21T04:47:35;100083.84;;;7.63;66.48
75699;BME280;64313;51.018;13.742;2024-02-21T04:50:00;100092.81;;;7.62;66.85
75699;BME280;64313;51.018;13.742;2024-02-21T04:52:26;100088.31;;;7.63;66.49
75699;BME280;64313;51.018;13.742;2024-02-21T04:54:51;100089.34;;;7.62;66.56
75699;BME280;64313;51.018;13.742;2024-02-21T04:57:17;100087.50;;;7.62;67.05
75699;BME280;64313;51.018;13.742;2024-02-21T04:59:45;100080.72;;;7.59;67.08
75699;BME280;64313;51.018;13.742;2024-02-21T05:02:11;100077.06;;;7.60;66.81
75699;BME280;64313;51.018;13.742;2024-02-21T05:04:36;100077.22;;;7.59;65.91
75699;BME280;64313;51.018;13.742;2024-02-21T05:07:03;100080.72;;;7.59;67.09
75699;BME280;64313;51.018;13.742;2024-02-21T05:09:29;100078.06;;;7.59;67.04
75699;BME280;64313;51.018;13.742;2024-02-21T05:11:54;100070.09;;;7.59;67.13
75699;BME280;64313;51.018;13.742;2024-02-21T05:14:19;100072.75;;;7.59;66.50
75699;BME280;64313;51.018;13.742;2024-02-21T05:16:45;100063.97;;;7.59;66.40
75699;BME280;64313;51.018;13.742;2024-02-21T05:19:10;100071.91;;;7.59;67.24
75699;BME280;64313;51.018;13.742;2024-02-21T05:21:35;100071.75;;;7.60;67.20
75699;BME280;64313;51.018;13.742;2024-02-21T05:24:01;100069.13;;;7.60;67.25
75699;BME280;64313;51.018;13.742;2024-02-21T05:26:27;100072.59;;;7.61;67.76
75699;BME280;64313;51.018;13.742;2024-02-21T05:28:53;100062.97;;;7.60;68.34
75699;BME280;64313;51.018;13.742;2024-02-21T05:31:19;100064.63;;;7.61;68.42
75699;BME280;64313;51.018;13.742;2024-02-21T05:33:45;100071.75;;;7.60;67.72
75699;BME280;64313;51.018;13.742;2024-02-21T05:36:11;100069.13;;;7.60;68.22
75699;BME280;64313;51.018;13.742;2024-02-21T05:38:36;100058.50;;;7.60;67.80
75699;BME280;64313;51.018;13.742;2024-02-21T05:41:02;100051.34;;;7.61;67.77
75699;BME280;64313;51.018;13.742;2024-02-21T05:43:27;100057.47;;;7.62;68.06
75699;BME280;64313;51.018;13.742;2024-02-21T05:45:53;100060.97;;;7.62;67.12
75699;BME280;64313;51.018;13.742;2024-02-21T05:48:19;100060.97;;;7.62;68.06
75699;BME280;64313;51.018;13.742;2024-02-21T05:50:45;100055.66;;;7.62;67.97
75699;BME280;64313;51.018;13.742;2024-02-21T05:53:10;100057.47;;;7.62;68.36
75699;BME280;64313;51.018;13.742;2024-02-21T05:55:36;100045.03;;;7.62;67.19
75699;BME280;64313;51.018;13.742;2024-02-21T05:58:01;100045.03;;;7.62;67.87
75699;BME280;64313;51.018;13.742;2024-02-21T06:00:27;100044.03;;;7.63;68.38
75699;BME280;64313;51.018;13.742;2024-02-21T06:02:53;100036.06;;;7.63;68.11
75699;BME280;64313;51.018;13.742;2024-02-21T06:05:18;100045.66;;;7.64;67.82
75699;BME280;64313;51.018;13.742;2024-02-21T06:07:43;100040.38;;;7.64;67.76
75699;BME280;64313;51.018;13.742;2024-02-21T06:10:08;100033.22;;;7.65;68.46
75699;BME280;64313;51.018;13.742;2024-02-21T06:12:34;100033.22;;;7.65;67.89
75699;BME280;64313;51.018;13.742;2024-02-21T06:14:59;100021.78;;;7.64;68.45
75699;BME280;64313;51.018;13.742;2024-02-21T06:17:24;100016.66;;;7.63;68.34
75699;BME280;64313;51.018;13.742;2024-02-21T06:19:50;100016.47;;;7.64;68.78
75699;BME280;64313;51.018;13.742;2024-02-21T06:22:15;100012.00;;;7.65;68.85
75699;BME280;64313;51.018;13.742;2024-02-21T06:24:40;100021.78;;;7.64;68.44
75699;BME280;64313;51.018;13.742;2024-02-21T06:27:06;100004.84;;;7.65;68.90
75699;BME280;64313;51.018;13.742;2024-02-21T06:29:32;99996.88;;;7.65;68.51
75699;BME280;64313;51.018;13.742;2024-02-21T06:31:57;100009.34;;;7.65;68.69
75699;BME280;64313;51.018;13.742;2024-02-21T06:34:23;100006.69;;;7.65;68.88
75699;BME280;64313;51.018;13.742;2024-02-21T06:36:49;100004.03;;;7.65;69.61
75699;BME280;64313;51.018;13.742;2024-02-21T06:39:14;99996.88;;;7.65;69.25
75699;BME280;64313;51.018;13.742;2024-02-21T06:41:40;99993.41;;;7.65;68.96
75699;BME280;64313;51.018;13.742;2024-02-21T06:44:05;99999.53;;;7.65;69.36
75699;BME280;64313;51.018;13.742;2024-02-21T06:46:31;100003.00;;;7.66;69.00
75699;BME280;64313;51.018;13.742;2024-02-21T06:48:58;100003.00;;;7.66;69.31
75699;BME280;64313;51.018;13.742;2024-02-21T06:51:25;100003.00;;;7.66;68.89
75699;BME280;64313;51.018;13.742;2024-02-21T06:53:51;100006.50;;;7.66;68.81
75699;BME280;64313;51.018;13.742;2024-02-21T06:56:16;100004.69;;;7.67;69.29
75699;BME280;64313;51.018;13.742;2024-02-21T06:58:42;100011.66;;;7.68;68.65
75699;BME280;64313;51.018;13.742;2024-02-21T07:01:07;100015.13;;;7.68;68.82
75699;BME280;64313;51.018;13.742;2024-02-21T07:03:33;100020.44;;;7.68;68.67
75699;BME280;64313;51.018;13.742;2024-02-21T07:05:58;100018.59;;;7.69;69.30
75699;BME280;64313;51.018;13.742;2024-02-21T07:08:23;100020.03;;;7.71;68.97
75699;BME280;64313;51.018;13.742;2024-02-21T07:10:49;100014.94;;;7.70;69.23
75699;BME280;64313;51.018;13.742;2024-02-21T07:13:14;100007.59;;;7.72;68.76
75699;BME280;64313;51.018;13.742;2024-02-21T07:15:41;100013.72;;;7.72;69.40
75699;BME280;64313;51.018;13.742;2024-02-21T07:18:06;100011.06;;;7.72;69.54
75699;BME280;64313;51.018;13.742;2024-02-21T07:20:31;100015.41;;;7.73;69.03
75699;BME280;64313;51.018;13.742;2024-02-21T07:22:59;100012.75;;;7.73;69.08
75699;BME280;64313;51.018;13.742;2024-02-21T07:25:24;100017.06;;;7.74;69.54
75699;BME280;64313;51.018;13.742;2024-02-21T07:27:49;100019.69;;;7.74;69.13
75699;BME280;64313;51.018;13.742;2024-02-21T07:30:14;100018.06;;;7.73;69.63
75699;BME280;64313;51.018;13.742;2024-02-21T07:32:40;100018.06;;;7.73;68.73
75699;BME280;64313;51.018;13.742;2024-02-21T07:35:05;100023.19;;;7.75;68.89
75699;BME280;64313;51.018;13.742;2024-02-21T07:37:31;100028.31;;;7.76;69.26
75699;BME280;64313;51.018;13.742;2024-02-21T07:39:56;100028.31;;;7.76;68.71
75699;BME280;64313;51.018;13.742;2024-02-21T07:42:21;100025.28;;;7.79;68.90
75699;BME280;64313;51.018;13.742;2024-02-21T07:44:47;100020.63;;;7.81;69.10
75699;BME280;64313;51.018;13.742;2024-02-21T07:47:12;100011.44;;;7.84;68.26
75699;BME280;64313;51.018;13.742;2024-02-21T07:49:42;100003.28;;;7.85;68.04
75699;BME280;64313;51.018;13.742;2024-02-21T07:52:08;100004.59;;;7.90;68.37
75699;BME280;64313;51.018;13.742;2024-02-21T07:54:33;99993.78;;;7.91;68.62
75699;BME280;64313;51.018;13.742;2024-02-21T07:56:58;100001.59;;;7.93;68.05
75699;BME280;64313;51.018;13.742;2024-02-21T07:59:24;99998.53;;;7.96;67.84
75699;BME280;64313;51.018;13.742;2024-02-21T08:01:49;99993.25;;;7.96;67.62
75699;BME280;64313;51.018;13.742;2024-02-21T08:04:14;99992.88;;;7.99;67.34
75699;BME280;64313;51.018;13.742;2024-02-21T08:06:39;99991.06;;;7.99;68.03
75699;BME280;64313;51.018;13.742;2024-02-21T08:09:05;100000.47;;;8.02;67.53
75699;BME280;64313;51.018;13.742;2024-02-21T08:11:30;100005.59;;;8.03;67.73
75699;BME280;64313;51.018;13.742;2024-02-21T08:13:55;99990.47;;;8.04;68.00
75699;BME280;64313;51.018;13.742;2024-02-21T08:16:21;100002.75;;;8.05;68.04
75699;BME280;64313;51.018;13.742;2024-02-21T08:18:46;99987.66;;;8.05;68.08
75699;BME280;64313;51.018;13.742;2024-02-21T08:21:12;100000.38;;;8.10;67.68
75699;BME280;64313;51.018;13.742;2024-02-21T08:23:37;100006.97;;;8.14;68.54
75699;BME280;64313;51.018;13.742;2024-02-21T08:26:03;100006.41;;;8.19;67.83
75699;BME280;64313;51.018;13.742;2024-02-21T08:28:29;100005.22;;;8.21;67.88
75699;BME280;64313;51.018;13.742;2024-02-21T08:30:54;100002.38;;;8.23;67.45
75699;BME280;64313;51.018;13.742;2024-02-21T08:33:19;100001.00;;;8.27;67.18
75699;BME280;64313;51.018;13.742;2024-02-21T08:35:49;99995.28;;;8.30;67.67
75699;BME280;64313;51.018;13.742;2024-02-21T08:38:15;99993.09;;;8.33;67.25
75699;BME280;64313;51.018;13.742;2024-02-21T08:40:40;99980.28;;;8.37;66.94
75699;BME280;64313;51.018;13.742;2024-02-21T08:43:05;99978.09;;;8.40;66.46
75699;BME280;64313;51.018;13.742;2024-02-21T08:45:30;99988.34;;;8.44;66.40
75699;BME280;64313;51.018;13.742;2024-02-21T08:47:56;99987.16;;;8.46;65.67
75699;BME280;64313;51.018;13.742;2024-02-21T08:50:21;99984.31;;;8.48;65.78
75699;BME280;64313;51.018;13.742;2024-02-21T08:52:46;99987.78;;;8.48;66.32
75699;BME280;64313;51.018;13.742;2024-02-21T08:55:12;99991.91;;;8.51;66.36
75699;BME280;64313;51.018;13.742;2024-02-21T08:57:37;99987.44;;;8.51;66.17
75699;BME280;64313;51.018;13.742;2024-02-21T09:00:05;99990.91;;;8.52;65.14
75699;BME280;64313;51.018;13.742;2024-02-21T09:02:40;99975.78;;;8.52;66.06
75699;BME280;64313;51.018;13.742;2024-02-21T09:05:06;99965.16;;;8.52;65.23
75699;BME280;64313;51.018;13.742;2024-02-21T09:07:31;99977.41;;;8.53;65.64
75699;BME280;64313;51.018;13.742;2024-02-21T09:09:57;99970.88;;;8.56;65.57
75699;BME280;64313;51.018;13.742;2024-02-21T09:12:22;99970.72;;;8.57;65.93
75699;BME280;64313;51.018;13.742;2024-02-21T09:14:47;99975.03;;;8.58;65.75
75699;BME280;64313;51.018;13.742;2024-02-21T09:17:18;99984.63;;;8.59;65.47
75699;BME280;64313;51.018;13.742;2024-02-21T09:19:45;99977.28;;;8.61;65.54
75699;BME280;64313;51.018;13.742;2024-02-21T09:22:10;99972.78;;;8.62;65.85
75699;BME280;64313;51.018;13.742;2024-02-21T09:24:36;99971.78;;;8.63;65.95
75699;BME280;64313;51.018;13.742;2024-02-21T09:27:01;99977.94;;;8.63;65.99
75699;BME280;64313;51.018;13.742;2024-02-21T09:29:26;99976.09;;;8.64;65.50
75699;BME280;64313;51.018;13.742;2024-02-21T09:31:52;99987.38;;;8.66;65.89
75699;BME280;64313;51.018;13.742;2024-02-21T09:34:17;99991.03;;;8.65;65.61
75699;BME280;64313;51.018;13.742;2024-02-21T09:36:42;99998.00;;;8.66;65.83
75699;BME280;64313;51.018;13.742;2024-02-21T09:39:08;99992.69;;;8.66;66.01
75699;BME280;64313;51.018;13.742;2024-02-21T09:41:37;99993.69;;;8.65;65.77
75699;BME280;64313;51.018;13.742;2024-02-21T09:44:06;100003.31;;;8.66;66.04
75699;BME280;64313;51.018;13.742;2024-02-21T09:47:02;99998.00;;;8.66;65.63
75699;BME280;64313;51.018;13.742;2024-02-21T09:49:31;99992.69;;;8.66;65.90
75699;BME280;64313;51.018;13.742;2024-02-21T09:52:00;99996.38;;;8.65;66.14
75699;BME280;64313;51.018;13.742;2024-02-21T09:54:28;99996.16;;;8.66;65.95
75699;BME280;64313;51.018;13.742;2024-02-21T09:56:54;99985.72;;;8.65;65.62
75699;BME280;64313;51.018;13.742;2024-02-21T09:59:20;99991.25;;;8.63;65.89
75699;BME280;64313;51.018;13.742;2024-02-21T10:01:46;99982.25;;;8.64;66.03
75699;BME280;64313;51.018;13.742;2024-02-21T10:04:15;99983.06;;;8.65;66.19
75699;BME280;64313;51.018;13.742;2024-02-21T10:06:41;99984.72;;;8.66;66.17
75699;BME280;64313;51.018;13.742;2024-02-21T10:09:06;99977.56;;;8.66;66.30
75699;BME280;64313;51.018;13.742;2024-02-21T10:11:32;99979.19;;;8.67;65.87
75699;BME280;64313;51.018;13.742;2024-02-21T10:14:07;99980.84;;;8.68;65.82
75699;BME280;64313;51.018;13.742;2024-02-21T10:16:33;99985.16;;;8.70;66.43
75699;BME280;64313;51.018;13.742;2024-02-21T10:18:59;99979.84;;;8.70;65.83
75699;BME280;64313;51.018;13.742;2024-02-21T10:21:25;99976.19;;;8.71;65.53
75699;BME280;64313;51.018;13.742;2024-02-21T10:23:51;99977.81;;;8.72;66.02
75699;BME280;64313;51.018;13.742;2024-02-21T10:26:19;99988.25;;;8.73;65.91
75699;BME280;64313;51.018;13.742;2024-02-21T10:28:44;99984.59;;;8.74;65.90
75699;BME280;64313;51.018;13.742;2024-02-21T10:31:22;99971.94;;;8.76;65.70
75699;BME280;64313;51.018;13.742;2024-02-21T10:33:54;99971.75;;;8.78;66.24
75699;BME280;64313;51.018;13.742;2024-02-21T10:36:20;99975.84;;;8.80;65.69
75699;BME280;64313;51.018;13.742;2024-02-21T10:38:45;99972.16;;;8.81;65.33
75699;BME280;64313;51.018;13.742;2024-02-21T10:41:13;99972.00;;;8.83;64.63
75699;BME280;64313;51.018;13.742;2024-02-21T10:43:40;99964.66;;;8.85;64.22
75699;BME280;64313;51.018;13.742;2024-02-21T10:46:06;99962.81;;;8.85;63.83
75699;BME280;64313;51.018;13.742;2024-02-21T10:48:41;99955.66;;;8.86;64.35
75699;BME280;64313;51.018;13.742;2024-02-21T10:51:18;99959.13;;;8.86;64.22
75699;BME280;64313;51.018;13.742;2024-02-21T10:56:35;99962.63;;;8.87;64.82
75699;BME280;64313;51.018;13.742;2024-02-21T10:59:07;99962.63;;;8.87;64.86
75699;BME280;64313;51.018;13.742;2024-02-21T11:01:33;99958.94;;;8.88;64.72
75699;BME280;64313;51.018;13.742;2024-02-21T11:04:05;99951.78;;;8.88;64.73
75699;BME280;64313;51.018;13.742;2024-02-21T11:06:32;99951.78;;;8.88;65.40
75699;BME280;64313;51.018;13.742;2024-02-21T11:09:06;99940.16;;;8.89;64.71
75699;BME280;64313;51.018;13.742;2024-02-21T11:11:39;99934.00;;;8.89;65.05
75699;BME280;64313;51.018;13.742;2024-02-21T11:14:09;99940.16;;;8.89;64.89
75699;BME280;64313;51.018;13.742;2024-02-21T11:16:40;99937.50;;;8.89;65.13
75699;BME280;64313;51.018;13.742;2024-02-21T11:19:07;99927.84;;;8.88;64.96
75699;BME280;64313;51.018;13.742;2024-02-21T11:21:37;99926.03;;;8.89;64.52
75699;BME280;64313;51.018;13.742;2024-02-21T11:24:05;99926.03;;;8.89;65.39
75699;BME280;64313;51.018;13.742;2024-02-21T11:26:32;99927.03;;;8.88;64.82
75699;BME280;64313;51.018;13.742;2024-02-21T11:29:01;99911.88;;;8.88;65.56
75699;BME280;64313;51.018;13.742;2024-02-21T11:31:41;99915.56;;;8.87;64.92
75699;BME280;64313;51.018;13.742;2024-02-21T11:34:10;99901.25;;;8.88;64.70
75699;BME280;64313;51.018;13.742;2024-02-21T11:36:36;99892.66;;;8.86;64.90
75699;BME280;64313;51.018;13.742;2024-02-21T11:39:05;99884.47;;;8.88;64.83
75699;BME280;64313;51.018;13.742;2024-02-21T11:41:31;99879.97;;;8.88;65.09
75699;BME280;64313;51.018;13.742;2024-02-21T11:43:56;99873.66;;;8.89;64.77
75699;BME280;64313;51.018;13.742;2024-02-21T11:46:21;99890.44;;;8.90;65.28
75699;BME280;64313;51.018;13.742;2024-02-21T11:48:48;99888.41;;;8.92;65.18
75699;BME280;64313;51.018;13.742;2024-02-21T11:51:24;99878.59;;;8.92;65.35
75699;BME280;64313;51.018;13.742;2024-02-21T11:53:51;99864.25;;;8.93;65.78
75699;BME280;64313;51.018;13.742;2024-02-21T11:56:16;99857.91;;;8.94;65.14
75699;BME280;64313;51.018;13.742;2024-02-21T11:58:41;99852.59;;;8.94;65.63
75699;BME280;64313;51.018;13.742;2024-02-21T12:01:08;99855.25;;;8.94;65.15
75699;BME280;64313;51.018;13.742;2024-02-21T12:03:33;99853.25;;;8.97;65.77
75699;BME280;64313;51.018;13.742;2024-02-21T12:06:01;99841.59;;;8.98;65.29
75699;BME280;64313;51.018;13.742;2024-02-21T12:08:40;99837.72;;;9.00;65.22
75699;BME280;64313;51.018;13.742;2024-02-21T12:11:24;99823.03;;;9.04;65.05
75699;BME280;64313;51.018;13.742;2024-02-21T12:14:02;99817.28;;;9.07;66.21
75699;BME280;64313;51.018;13.742;2024-02-21T12:16:35;99807.91;;;9.11;65.51
75699;BME280;64313;51.018;13.742;2024-02-21T12:19:04;99803.22;;;9.13;65.16
75699;BME280;64313;51.018;13.742;2024-02-21T12:21:31;99794.84;;;9.16;64.75
75699;BME280;64313;51.018;13.742;2024-02-21T12:23:58;99799.75;;;9.19;64.39
75699;BME280;64313;51.018;13.742;2024-02-21T12:26:23;99786.91;;;9.23;65.28
75699;BME280;64313;51.018;13.742;2024-02-21T12:28:49;99777.31;;;9.29;65.22
75699;BME280;64313;51.018;13.742;2024-02-21T12:31:14;99774.03;;;9.33;65.25
75699;BME280;64313;51.018;13.742;2024-02-21T12:33:41;99762.19;;;9.36;64.41
75699;BME280;64313;51.018;13.742;2024-02-21T12:36:07;99758.09;;;9.40;64.78
75699;BME280;64313;51.018;13.742;2024-02-21T12:38:34;99755.88;;;9.43;64.89
75699;BME280;64313;51.018;13.742;2024-02-21T12:40:59;99758.13;;;9.46;65.03
75699;BME280;64313;51.018;13.742;2024-02-21T12:43:26;99743.41;;;9.50;64.51
75699;BME280;64313;51.018;13.742;2024-02-21T12:45:52;99746.69;;;9.53;65.03
75699;BME280;64313;51.018;13.742;2024-02-21T12:48:17;99740.75;;;9.57;64.64
75699;BME280;64313;51.018;13.742;2024-02-21T12:50:49;99728.06;;;9.59;64.25